Time;durP1;ratioP1;P1;durP2;ratioP2;P2;SDS_P1;SDS_P2;PMS_P1;PMS_P2;Temp;Humidity;BMP_temperature;BMP_pressure;BME280_temperature;BME280_humidity;BME280_pressure;Samples;Min_cycle;Max_cycle;Signal;HPM_P1;HPM_P2
2022/11/11 00:00:50;;;;;;;1.33;0.98;;;;;;;;;;4896983;29;20048;-39
2022/11/11 00:03:34;;;;;;;0.95;0.57;;;;;;;;;;4897107;29;20123;-39
2022/11/11 00:06:18;;;;;;;1.45;0.93;;;;;;;;;;4896552;29;20070;-39
2022/11/11 00:09:02;;;;;;;1.55;1.05;;;;;;;;;;4896822;29;20115;-39
2022/11/11 00:11:45;;;;;;;1.60;0.85;;;;;;;;;;4896832;29;20116;-39
2022/11/11 00:14:29;;;;;;;1.35;1.00;;;;;;;;;;4896948;29;20051;-39
2022/11/11 00:26:23;;;;;;;;;;;;;;;;;;4897179;29;20043;-39
2022/11/11 00:29:07;;;;;;;0.50;0.50;;;;;;;;;;4896686;29;19969;-39
2022/11/11 00:38:05;;;;;;;1.25;1.15;;;;;;;;;;4896661;29;20323;-39
2022/11/11 00:40:49;;;;;;;1.70;0.52;;;;;;;;;;4896392;29;20055;-40
2022/11/11 00:43:33;;;;;;;2.00;0.98;;;;;;;;;;4896316;29;20114;-39
2022/11/11 00:52:30;;;;;;;0.70;0.70;;;;;;;;;;4896398;29;20056;-39
2022/11/11 00:55:14;;;;;;;2.05;1.15;;;;;;;;;;4896224;29;20494;-39
2022/11/11 00:57:58;;;;;;;0.95;0.80;;;;;;;;;;4896483;29;20084;-44
2022/11/11 01:00:42;;;;;;;1.67;0.60;;;;;;;;;;4896441;29;20104;-39
2022/11/11 01:03:26;;;;;;;3.90;0.90;;;;;;;;;;4896360;29;20510;-39
2022/11/11 01:06:11;;;;;;;1.35;0.75;;;;;;;;;;4895998;29;20060;-39
2022/11/11 01:08:55;;;;;;;1.33;0.93;;;;;;;;;;4895182;29;20114;-48
2022/11/11 01:11:39;;;;;;;0.80;0.60;;;;;;;;;;4896368;29;20242;-39
2022/11/11 01:14:23;;;;;;;1.67;0.60;;;;;;;;;;4896350;29;20419;-40
2022/11/11 01:17:08;;;;;;;1.05;0.63;;;;;;;;;;4895296;29;20128;-39
2022/11/11 01:19:52;;;;;;;1.05;0.75;;;;;;;;;;4896072;29;20108;-39
2022/11/11 01:22:36;;;;;;;0.85;0.50;;;;;;;;;;4896125;29;20064;-39
2022/11/11 01:25:20;;;;;;;1.30;1.02;;;;;;;;;;4896250;29;20446;-39
2022/11/11 01:28:06;;;;;;;1.27;0.73;;;;;;;;;;4896173;29;20506;-39
2022/11/11 01:30:49;;;;;;;2.35;0.80;;;;;;;;;;4895923;29;20116;-39
2022/11/11 01:33:34;;;;;;;0.80;0.57;;;;;;;;;;4896256;29;20108;-39
2022/11/11 01:36:20;;;;;;;1.08;0.80;;;;;;;;;;4895878;29;20096;-39
2022/11/11 01:39:04;;;;;;;1.23;0.93;;;;;;;;;;4896113;29;20513;-39
2022/11/11 01:41:47;;;;;;;1.13;0.70;;;;;;;;;;4896011;29;20051;-39
2022/11/11 01:44:40;;;;;;;0.98;0.65;;;;;;;;;;4896138;29;20071;-39
2022/11/11 01:49:17;;;;;;;0.95;0.75;;;;;;;;;;4895809;29;20067;-39
2022/11/11 01:50:27;;;;;;;0.85;0.68;;;;;;;;;;4895998;29;20050;-39
2022/11/11 01:53:12;;;;;;;1.00;0.52;;;;;;;;;;4895605;29;20143;-39
2022/11/11 01:55:56;;;;;;;0.50;0.38;;;;;;;;;;4899542;29;20031;-39
2022/11/11 01:58:40;;;;;;;0.57;0.40;;;;;;;;;;4899302;29;20051;-39
2022/11/11 02:01:24;;;;;;;0.45;0.43;;;;;;;;;;4899043;29;20071;-39
2022/11/11 02:07:11;;;;;;;;;;;;;;;;;;4899317;29;20104;-39
2022/11/11 02:09:56;;;;;;;0.93;0.70;;;;;;;;;;4899285;29;19921;-39
2022/11/11 02:15:44;;;;;;;1.37;0.80;;;;;;;;;;4899096;29;20092;-39
2022/11/11 02:18:29;;;;;;;1.67;1.58;;;;;;;;;;4898896;29;20327;-40
2022/11/11 02:21:18;;;;;;;1.10;0.70;;;;;;;;;;4897604;29;20079;-39
2022/11/11 02:24:03;;;;;;;2.08;1.13;;;;;;;;;;4898727;29;20411;-39
2022/11/11 02:26:48;;;;;;;1.10;0.98;;;;;;;;;;4898852;29;20143;-39
2022/11/11 02:29:32;;;;;;;2.40;1.00;;;;;;;;;;4898546;29;20035;-39
2022/11/11 02:32:16;;;;;;;1.00;0.55;;;;;;;;;;4898479;29;20060;-39
2022/11/11 02:35:00;;;;;;;1.38;1.08;;;;;;;;;;4898367;29;20077;-39
2022/11/11 02:37:45;;;;;;;8.38;1.10;;;;;;;;;;4898405;29;20531;-39
2022/11/11 02:40:36;;;;;;;1.15;1.00;;;;;;;;;;4898344;29;20131;-39
2022/11/11 02:43:20;;;;;;;1.90;0.98;;;;;;;;;;4898497;29;20044;-39
2022/11/11 02:46:05;;;;;;;1.70;0.90;;;;;;;;;;4898343;29;20047;-39
2022/11/11 02:48:49;;;;;;;1.38;0.70;;;;;;;;;;4898455;29;20459;-39
2022/11/11 02:51:33;;;;;;;0.65;0.55;;;;;;;;;;4898402;29;20055;-39
2022/11/11 02:54:17;;;;;;;0.70;0.65;;;;;;;;;;4898121;29;20043;-39
2022/11/11 02:57:07;;;;;;;1.30;0.70;;;;;;;;;;4898071;29;20499;-39
2022/11/11 02:59:51;;;;;;;1.33;0.60;;;;;;;;;;4898107;29;20040;-39
2022/11/11 03:02:35;;;;;;;1.13;0.70;;;;;;;;;;4897999;29;20040;-39
2022/11/11 03:05:19;;;;;;;2.55;0.63;;;;;;;;;;4897043;29;20414;-39
2022/11/11 03:08:03;;;;;;;1.60;1.05;;;;;;;;;;4898170;29;20095;-40
2022/11/11 03:10:47;;;;;;;0.38;0.38;;;;;;;;;;4897848;29;20055;-39
2022/11/11 03:13:31;;;;;;;0.60;0.47;;;;;;;;;;4897688;29;20086;-39
2022/11/11 03:19:18;;;;;;;1.05;0.68;;;;;;;;;;4897620;29;20116;-39
2022/11/11 03:22:02;;;;;;;0.70;0.60;;;;;;;;;;4897645;29;20047;-39
2022/11/11 03:27:49;;;;;;;1.20;1.10;;;;;;;;;;4897804;29;20498;-39
2022/11/11 03:30:33;;;;;;;1.58;0.52;;;;;;;;;;4897532;29;20047;-40
2022/11/11 03:33:17;;;;;;;1.58;0.68;;;;;;;;;;4897281;29;20103;-39
2022/11/11 03:36:01;;;;;;;0.95;0.75;;;;;;;;;;4897606;29;20039;-39
2022/11/11 03:38:45;;;;;;;0.40;0.40;;;;;;;;;;4897528;29;20075;-39
2022/11/11 03:41:29;;;;;;;0.80;0.80;;;;;;;;;;4896262;29;20043;-39
2022/11/11 03:44:13;;;;;;;0.60;0.60;;;;;;;;;;4897461;29;20080;-39
2022/11/11 03:46:57;;;;;;;1.15;0.57;;;;;;;;;;4897214;29;20055;-39
2022/11/11 03:49:42;;;;;;;1.20;0.75;;;;;;;;;;4897390;29;20043;-42
2022/11/11 03:52:26;;;;;;;0.85;0.47;;;;;;;;;;4895908;29;20678;-39
2022/11/11 03:55:10;;;;;;;0.55;0.50;;;;;;;;;;4897214;29;20530;-39
2022/11/11 03:57:54;;;;;;;0.80;0.70;;;;;;;;;;4897231;29;20047;-39
2022/11/11 04:00:38;;;;;;;0.43;0.43;;;;;;;;;;4897150;29;20407;-39
2022/11/11 04:16:04;;;;;;;2.80;1.60;;;;;;;;;;4896696;29;20089;-39
2022/11/11 04:21:44;;;;;;;1.20;0.60;;;;;;;;;;4896922;29;20670;-39
2022/11/11 04:27:31;;;;;;;2.42;0.80;;;;;;;;;;4896749;29;20506;-39
2022/11/11 04:30:15;;;;;;;0.70;0.70;;;;;;;;;;4896710;29;20607;-39
2022/11/11 04:32:59;;;;;;;0.55;0.55;;;;;;;;;;4896509;29;20379;-39
2022/11/11 04:35:47;;;;;;;2.42;0.90;;;;;;;;;;4896459;29;20047;-39
2022/11/11 04:41:34;;;;;;;5.60;0.60;;;;;;;;;;4896827;29;20047;-39
2022/11/11 04:47:21;;;;;;;0.70;0.70;;;;;;;;;;4896289;29;20040;-39
2022/11/11 04:50:05;;;;;;;0.65;0.60;;;;;;;;;;4896625;29;20512;-39
2022/11/11 04:52:49;;;;;;;2.65;0.60;;;;;;;;;;4896401;29;20052;-39
2022/11/11 04:58:36;;;;;;;0.50;0.50;;;;;;;;;;4896500;29;20084;-39
2022/11/11 05:03:14;;;;;;;2.30;1.10;;;;;;;;;;4896184;29;20067;-39
2022/11/11 05:04:24;;;;;;;0.50;0.40;;;;;;;;;;4896371;29;20080;-39
2022/11/11 05:10:11;;;;;;;0.60;0.60;;;;;;;;;;4896703;29;20100;-39
2022/11/11 05:21:19;;;;;;;0.60;0.60;;;;;;;;;;4896047;29;20059;-39
2022/11/11 05:22:24;;;;;;;0.55;0.47;;;;;;;;;;4896045;29;20046;-39
2022/11/11 05:25:24;;;;;;;0.52;0.50;;;;;;;;;;4895084;29;20097;-39
2022/11/11 05:28:08;;;;;;;0.65;0.57;;;;;;;;;;4896212;29;20044;-39
2022/11/11 05:30:52;;;;;;;0.60;0.52;;;;;;;;;;4899820;29;20103;-39
2022/11/11 05:33:36;;;;;;;1.13;0.65;;;;;;;;;;4899527;29;20725;-39
2022/11/11 05:36:20;;;;;;;1.42;0.82;;;;;;;;;;4899722;29;20190;-39
2022/11/11 05:39:04;;;;;;;3.38;1.02;;;;;;;;;;4899711;29;20179;-39
2022/11/11 05:41:48;;;;;;;0.55;0.50;;;;;;;;;;4899640;29;20056;-41
2022/11/11 05:44:32;;;;;;;0.43;0.30;;;;;;;;;;4899456;29;20189;-39
2022/11/11 05:47:16;;;;;;;0.52;0.50;;;;;;;;;;4899206;29;20063;-39
2022/11/11 05:50:00;;;;;;;0.50;0.50;;;;;;;;;;4899576;29;20039;-39
2022/11/11 05:52:49;;;;;;;0.95;0.60;;;;;;;;;;4899358;29;20083;-39
2022/11/11 05:55:32;;;;;;;1.75;1.00;;;;;;;;;;4899332;29;20044;-39
2022/11/11 05:58:17;;;;;;;0.70;0.68;;;;;;;;;;4899106;29;20050;-39
2022/11/11 06:01:01;;;;;;;0.95;0.68;;;;;;;;;;4899333;29;20096;-39
2022/11/11 06:03:45;;;;;;;0.70;0.60;;;;;;;;;;4899103;29;20120;-39
2022/11/11 06:06:29;;;;;;;0.98;0.52;;;;;;;;;;4898860;29;20590;-39
2022/11/11 06:09:13;;;;;;;1.13;0.98;;;;;;;;;;4898825;29;20076;-39
2022/11/11 06:11:57;;;;;;;1.52;0.77;;;;;;;;;;4899100;29;20052;-39
2022/11/11 06:14:41;;;;;;;0.98;0.40;;;;;;;;;;4898898;29;20591;-39
2022/11/11 06:17:25;;;;;;;2.92;0.70;;;;;;;;;;4898739;29;20063;-39
2022/11/11 06:20:09;;;;;;;3.10;0.70;;;;;;;;;;4898858;29;20124;-39
2022/11/11 06:22:56;;;;;;;0.45;0.43;;;;;;;;;;4898951;29;20104;-40
2022/11/11 06:28:44;;;;;;;1.27;1.13;;;;;;;;;;4898662;29;20100;-39
2022/11/11 06:31:29;;;;;;;0.60;0.57;;;;;;;;;;4898740;29;20079;-39
2022/11/11 06:34:13;;;;;;;0.40;0.40;;;;;;;;;;4898487;29;20088;-39
2022/11/11 06:36:56;;;;;;;0.43;0.43;;;;;;;;;;4898730;29;20132;-39
2022/11/11 06:39:40;;;;;;;4.00;1.10;;;;;;;;;;4898434;29;20128;-39
2022/11/11 06:42:24;;;;;;;3.50;0.88;;;;;;;;;;4898543;29;20092;-39
2022/11/11 06:45:09;;;;;;;1.15;0.85;;;;;;;;;;4884307;29;20176;-39
2022/11/11 06:47:53;;;;;;;3.20;0.98;;;;;;;;;;4898272;29;20455;-39
2022/11/11 06:50:37;;;;;;;3.00;0.85;;;;;;;;;;4898531;29;20035;-39
2022/11/11 06:53:22;;;;;;;2.10;0.90;;;;;;;;;;4897994;29;20051;-39
2022/11/11 06:56:06;;;;;;;0.80;0.40;;;;;;;;;;4898465;29;20074;-39
2022/11/11 06:58:50;;;;;;;0.98;0.65;;;;;;;;;;4898053;29;20055;-39
2022/11/11 07:01:34;;;;;;;1.60;0.68;;;;;;;;;;4898221;29;20051;-39
2022/11/11 07:04:18;;;;;;;1.63;0.82;;;;;;;;;;4897834;29;20054;-39
2022/11/11 07:07:02;;;;;;;1.27;1.17;;;;;;;;;;4860680;29;20085;-39
2022/11/11 07:09:47;;;;;;;0.75;0.40;;;;;;;;;;4860914;29;20040;-39
2022/11/11 07:12:31;;;;;;;3.22;1.05;;;;;;;;;;4860511;29;20056;-39
2022/11/11 07:15:15;;;;;;;1.55;0.63;;;;;;;;;;4860495;29;20040;-39
2022/11/11 07:17:59;;;;;;;1.30;0.82;;;;;;;;;;4860700;29;20068;-39
2022/11/11 07:20:43;;;;;;;1.70;0.47;;;;;;;;;;4860681;29;20072;-39
2022/11/11 07:23:27;;;;;;;0.65;0.57;;;;;;;;;;4860355;29;20048;-39
2022/11/11 07:26:11;;;;;;;2.13;2.00;;;;;;;;;;4860325;29;20033;-39
2022/11/11 07:28:55;;;;;;;1.88;0.95;;;;;;;;;;4860508;29;20043;-39
2022/11/11 07:31:40;;;;;;;0.77;0.47;;;;;;;;;;4860480;29;20052;-39
2022/11/11 07:34:24;;;;;;;1.35;0.82;;;;;;;;;;4860375;29;20052;-39
2022/11/11 07:37:08;;;;;;;1.42;0.98;;;;;;;;;;4860141;29;20040;-38
2022/11/11 07:39:52;;;;;;;1.08;0.80;;;;;;;;;;4860376;29;20070;-39
2022/11/11 07:42:36;;;;;;;1.63;1.08;;;;;;;;;;4859991;29;20049;-38
2022/11/11 07:45:20;;;;;;;1.23;0.93;;;;;;;;;;4860192;29;20049;-39
2022/11/11 07:48:04;;;;;;;0.88;0.88;;;;;;;;;;4860183;29;20400;-39
2022/11/11 07:50:50;;;;;;;1.77;0.90;;;;;;;;;;4859951;29;20064;-39
2022/11/11 07:53:34;;;;;;;2.53;0.90;;;;;;;;;;4859415;29;20137;-40
2022/11/11 07:56:18;;;;;;;2.00;0.80;;;;;;;;;;4859995;29;20082;-39
2022/11/11 07:59:02;;;;;;;1.00;0.90;;;;;;;;;;4859792;29;20105;-40
2022/11/11 08:01:46;;;;;;;2.28;0.90;;;;;;;;;;4859788;29;20165;-39
2022/11/11 08:04:30;;;;;;;7.05;0.88;;;;;;;;;;4859912;29;20458;-39
2022/11/11 08:07:14;;;;;;;2.13;0.93;;;;;;;;;;4859570;29;20056;-39
2022/11/11 08:09:57;;;;;;;0.77;0.77;;;;;;;;;;4859687;29;20044;-39
2022/11/11 08:15:44;;;;;;;4.05;0.90;;;;;;;;;;4859745;29;20124;-39
2022/11/11 08:18:28;;;;;;;3.00;0.85;;;;;;;;;;4859420;29;20441;-39
2022/11/11 08:21:12;;;;;;;1.33;0.73;;;;;;;;;;4859577;29;20041;-39
2022/11/11 08:23:56;;;;;;;1.42;0.70;;;;;;;;;;4859490;29;20436;-39
2022/11/11 08:26:40;;;;;;;0.55;0.55;;;;;;;;;;4859663;29;20066;-39
2022/11/11 08:29:24;;;;;;;1.23;0.70;;;;;;;;;;4858352;29;20076;-39
2022/11/11 08:32:08;;;;;;;1.40;0.60;;;;;;;;;;4859425;29;20095;-39
2022/11/11 08:34:52;;;;;;;2.47;1.27;;;;;;;;;;4859312;29;20048;-39
2022/11/11 08:37:36;;;;;;;0.77;0.60;;;;;;;;;;4859409;29;20072;-39
2022/11/11 08:40:20;;;;;;;0.63;0.63;;;;;;;;;;4859417;29;20165;-39
2022/11/11 08:43:04;;;;;;;3.63;1.15;;;;;;;;;;4859527;29;20049;-39
2022/11/11 08:45:51;;;;;;;1.20;0.85;;;;;;;;;;4859469;29;20048;-39
2022/11/11 08:48:34;;;;;;;1.23;0.93;;;;;;;;;;4859119;29;20093;-39
2022/11/11 08:51:18;;;;;;;1.08;0.70;;;;;;;;;;4859069;29;20048;-39
2022/11/11 08:54:02;;;;;;;0.95;0.80;;;;;;;;;;4859375;29;20182;-43
2022/11/11 08:56:46;;;;;;;2.47;0.63;;;;;;;;;;4859405;29;20534;-40
2022/11/11 08:59:30;;;;;;;0.70;0.52;;;;;;;;;;4859156;29;20106;-39
2022/11/11 09:02:14;;;;;;;1.05;0.35;;;;;;;;;;4859235;29;20045;-39
2022/11/11 09:04:58;;;;;;;0.68;0.50;;;;;;;;;;4869403;29;20432;-39
2022/11/11 09:07:42;;;;;;;1.13;0.88;;;;;;;;;;4899940;29;20099;-39
2022/11/11 09:10:26;;;;;;;1.52;0.80;;;;;;;;;;4900216;29;20176;-39
2022/11/11 09:13:10;;;;;;;1.52;0.80;;;;;;;;;;4899925;29;20113;-39
2022/11/11 09:15:54;;;;;;;1.08;1.08;;;;;;;;;;4899924;29;20666;-39
2022/11/11 09:18:38;;;;;;;1.45;0.50;;;;;;;;;;4899775;29;20063;-39
2022/11/11 09:21:23;;;;;;;1.08;0.68;;;;;;;;;;4899696;29;20060;-39
2022/11/11 09:24:07;;;;;;;1.05;0.73;;;;;;;;;;4899835;29;20123;-39
2022/11/11 09:26:51;;;;;;;1.85;0.82;;;;;;;;;;4899992;29;20039;-39
2022/11/11 09:29:34;;;;;;;0.82;0.52;;;;;;;;;;4899891;29;20511;-39
2022/11/11 09:32:18;;;;;;;0.50;0.50;;;;;;;;;;4899701;29;20055;-39
2022/11/11 09:35:03;;;;;;;1.85;0.60;;;;;;;;;;4899789;29;20096;-39
2022/11/11 09:37:54;;;;;;;1.10;0.65;;;;;;;;;;4899538;29;20448;-39
2022/11/11 09:40:58;;;;;;;1.13;0.57;;;;;;;;;;4899724;29;20043;-39
2022/11/11 09:43:48;;;;;;;2.08;0.88;;;;;;;;;;4899500;29;20056;-39
2022/11/11 09:47:04;;;;;;;1.10;0.52;;;;;;;;;;4899609;29;20071;-39
2022/11/11 09:49:59;;;;;;;1.23;0.73;;;;;;;;;;4874788;29;20050;-39
2022/11/11 09:52:50;;;;;;;0.90;0.50;;;;;;;;;;4899316;29;20132;-39
2022/11/11 09:55:34;;;;;;;2.90;0.93;;;;;;;;;;4899376;29;20051;-39
2022/11/11 09:58:44;;;;;;;1.58;0.82;;;;;;;;;;4899083;29;20091;-39
2022/11/11 10:01:32;;;;;;;1.05;0.82;;;;;;;;;;4899051;29;20506;-42
2022/11/11 10:04:20;;;;;;;2.53;0.73;;;;;;;;;;4899278;29;20619;-39
2022/11/11 10:07:23;;;;;;;0.45;0.45;;;;;;;;;;4899308;29;20052;-39
2022/11/11 10:10:12;;;;;;;1.10;0.88;;;;;;;;;;4899346;29;20108;-39
2022/11/11 10:12:57;;;;;;;1.08;0.70;;;;;;;;;;4898905;29;20111;-39
2022/11/11 10:16:01;;;;;;;0.85;0.60;;;;;;;;;;4898260;29;20084;-39
2022/11/11 10:18:52;;;;;;;0.60;0.60;;;;;;;;;;4898781;29;20050;-39
2022/11/11 10:21:40;;;;;;;1.00;0.68;;;;;;;;;;4898750;29;20043;-40
2022/11/11 10:24:36;;;;;;;0.45;0.40;;;;;;;;;;4898895;29;20044;-39
2022/11/11 10:27:21;;;;;;;0.63;0.43;;;;;;;;;;4898937;29;20436;-39
2022/11/11 10:30:17;;;;;;;1.55;0.85;;;;;;;;;;4898680;29;20051;-39
2022/11/11 10:33:02;;;;;;;1.67;0.93;;;;;;;;;;4898549;29;20452;-39
2022/11/11 10:35:47;;;;;;;0.65;0.50;;;;;;;;;;4898792;29;20507;-39
2022/11/11 10:38:42;;;;;;;0.90;0.60;;;;;;;;;;4898624;29;20044;-40
2022/11/11 10:41:26;;;;;;;0.80;0.47;;;;;;;;;;4898345;29;20483;-39
2022/11/11 10:44:26;;;;;;;0.70;0.40;;;;;;;;;;4898631;29;20055;-40
2022/11/11 10:47:20;;;;;;;0.50;0.50;;;;;;;;;;4898268;29;20043;-39
2022/11/11 10:50:16;;;;;;;1.02;0.45;;;;;;;;;;4898362;29;20048;-39
2022/11/11 10:53:19;;;;;;;0.95;0.47;;;;;;;;;;4898082;29;20052;-41
2022/11/11 10:56:03;;;;;;;0.73;0.35;;;;;;;;;;4898478;29;20059;-39
2022/11/11 10:58:51;;;;;;;1.55;0.57;;;;;;;;;;4898185;29;20506;-39
2022/11/11 11:01:37;;;;;;;1.55;0.65;;;;;;;;;;4897953;29;20044;-40
2022/11/11 11:04:21;;;;;;;0.68;0.65;;;;;;;;;;4898241;29;20060;-39
2022/11/11 11:07:06;;;;;;;0.73;0.60;;;;;;;;;;4897983;29;20415;-39
2022/11/11 11:09:56;;;;;;;0.60;0.50;;;;;;;;;;4897892;29;20051;-39
2022/11/11 11:12:46;;;;;;;1.20;0.60;;;;;;;;;;4897865;29;20060;-39
2022/11/11 11:15:30;;;;;;;0.75;0.60;;;;;;;;;;4897965;29;20043;-39
2022/11/11 11:18:15;;;;;;;0.60;0.57;;;;;;;;;;4898066;29;20057;-39
2022/11/11 11:21:03;;;;;;;0.50;0.45;;;;;;;;;;4897686;29;20064;-39
2022/11/11 11:23:47;;;;;;;0.45;0.45;;;;;;;;;;4897939;29;20051;-40
2022/11/11 11:26:44;;;;;;;0.68;0.40;;;;;;;;;;4896591;29;20080;-39
2022/11/11 11:29:29;;;;;;;0.85;0.50;;;;;;;;;;4897689;29;20135;-39
2022/11/11 11:35:02;;;;;;;0.60;0.50;;;;;;;;;;4902776;29;20097;-39
2022/11/11 11:37:48;;;;;;;0.73;0.63;;;;;;;;;;4916492;29;20047;-39
2022/11/11 11:40:47;;;;;;;1.58;0.90;;;;;;;;;;4916642;29;20055;-38
2022/11/11 11:43:33;;;;;;;3.22;0.60;;;;;;;;;;4916434;29;20039;-39
2022/11/11 11:46:27;;;;;;;2.38;0.55;;;;;;;;;;4916490;29;20076;-39
2022/11/11 11:49:36;;;;;;;0.77;0.47;;;;;;;;;;5068861;28;20379;-40
2022/11/11 11:52:40;;;;;;;2.37;1.23;;;;;;;;;;5068874;28;20087;-41
2022/11/11 11:55:28;;;;;;;1.15;0.90;;;;;;;;;;5069040;28;20303;-40
2022/11/11 11:58:18;;;;;;;0.68;0.68;;;;;;;;;;5068992;28;20610;-40
2022/11/11 12:01:23;;;;;;;1.27;0.70;;;;;;;;;;5068857;28;20039;-41
2022/11/11 12:04:14;;;;;;;1.30;0.70;;;;;;;;;;5068844;28;20094;-40
2022/11/11 12:06:58;;;;;;;0.40;0.40;;;;;;;;;;5068616;28;20044;-40
2022/11/11 12:09:41;;;;;;;1.02;0.77;;;;;;;;;;5068524;28;20048;-41
2022/11/11 12:12:41;;;;;;;2.83;0.82;;;;;;;;;;5068747;28;20032;-40
2022/11/11 12:15:31;;;;;;;0.90;0.50;;;;;;;;;;5068598;28;20073;-40
2022/11/11 12:18:34;;;;;;;0.57;0.55;;;;;;;;;;5068602;28;20124;-41
2022/11/11 12:21:21;;;;;;;1.00;0.85;;;;;;;;;;5068333;28;20532;-41
2022/11/11 12:24:41;;;;;;;0.90;0.80;;;;;;;;;;5068360;28;20044;-41
2022/11/11 12:27:31;;;;;;;3.42;0.88;;;;;;;;;;5045757;28;20461;-40
2022/11/11 12:30:29;;;;;;;1.95;0.60;;;;;;;;;;5068308;28;20489;-40
2022/11/11 12:33:22;;;;;;;0.65;0.43;;;;;;;;;;5068180;28;20124;-40
2022/11/11 12:36:05;;;;;;;0.95;0.70;;;;;;;;;;5068183;28;20126;-41
2022/11/11 12:38:50;;;;;;;0.55;0.55;;;;;;;;;;5068140;28;20052;-40
2022/11/11 12:41:40;;;;;;;0.63;0.50;;;;;;;;;;5068187;28;20110;-40
2022/11/11 12:44:32;;;;;;;0.85;0.70;;;;;;;;;;5067761;28;20040;-40
2022/11/11 12:47:25;;;;;;;1.70;0.70;;;;;;;;;;5067703;28;20087;-40
2022/11/11 12:50:14;;;;;;;0.73;0.63;;;;;;;;;;5066614;28;20043;-40
2022/11/11 12:52:58;;;;;;;1.00;0.77;;;;;;;;;;5067776;28;20390;-40
2022/11/11 12:56:01;;;;;;;1.08;0.90;;;;;;;;;;5067766;28;20145;-40
2022/11/11 12:58:49;;;;;;;0.73;0.70;;;;;;;;;;5065046;28;20047;-41
2022/11/11 13:01:48;;;;;;;0.88;0.60;;;;;;;;;;5054860;28;20102;-40
2022/11/11 13:04:37;;;;;;;0.80;0.65;;;;;;;;;;5054499;28;20469;-40
2022/11/11 13:07:39;;;;;;;0.77;0.55;;;;;;;;;;5054199;28;20122;-41
2022/11/11 13:10:33;;;;;;;1.58;0.65;;;;;;;;;;5054325;28;20044;-40
2022/11/11 13:13:35;;;;;;;0.85;0.68;;;;;;;;;;5054174;28;20036;-40
2022/11/11 13:16:22;;;;;;;1.23;0.95;;;;;;;;;;5053946;28;20048;-40
2022/11/11 13:19:24;;;;;;;0.52;0.52;;;;;;;;;;5054193;28;20112;-40
2022/11/11 13:22:11;;;;;;;1.83;0.90;;;;;;;;;;5054112;28;20059;-40
2022/11/11 13:24:56;;;;;;;1.80;0.68;;;;;;;;;;5053877;28;20670;-40
2022/11/11 13:27:47;;;;;;;0.88;0.57;;;;;;;;;;5053879;28;20091;-40
2022/11/11 13:30:33;;;;;;;1.17;1.02;;;;;;;;;;5053780;28;20067;-40
2022/11/11 13:33:19;;;;;;;1.35;0.93;;;;;;;;;;5053674;28;20098;-41
2022/11/11 13:36:05;;;;;;;1.08;0.80;;;;;;;;;;5053483;28;20068;-41
2022/11/11 13:38:52;;;;;;;1.65;0.90;;;;;;;;;;5053599;28;20043;-40
2022/11/11 13:41:38;;;;;;;2.10;0.82;;;;;;;;;;5053539;28;20044;-40
2022/11/11 13:44:24;;;;;;;1.13;0.60;;;;;;;;;;5053709;28;20095;-40
2022/11/11 13:47:14;;;;;;;0.95;0.95;;;;;;;;;;5052299;28;20090;-41
2022/11/11 13:50:01;;;;;;;0.70;0.45;;;;;;;;;;5053638;28;20395;-40
2022/11/11 13:52:55;;;;;;;2.50;0.95;;;;;;;;;;5053355;28;20497;-41
2022/11/11 13:55:43;;;;;;;10.43;1.42;;;;;;;;;;5053479;28;20124;-40
2022/11/11 13:58:30;;;;;;;0.75;0.63;;;;;;;;;;5053308;28;20414;-40
2022/11/11 14:01:14;;;;;;;2.10;0.80;;;;;;;;;;5053323;28;20055;-40
2022/11/11 14:04:07;;;;;;;1.75;0.60;;;;;;;;;;5053261;28;20162;-41
2022/11/11 14:06:53;;;;;;;1.40;0.73;;;;;;;;;;5053355;28;20052;-41
2022/11/11 14:09:57;;;;;;;2.08;0.68;;;;;;;;;;5053020;28;20262;-40
2022/11/11 14:12:51;;;;;;;0.98;0.60;;;;;;;;;;5052570;28;20099;-41
2022/11/11 14:15:40;;;;;;;1.05;0.65;;;;;;;;;;5053129;28;20075;-40
2022/11/11 14:18:24;;;;;;;1.95;0.85;;;;;;;;;;5052974;28;20059;-41
2022/11/11 14:21:08;;;;;;;1.75;0.70;;;;;;;;;;5052750;28;20051;-41
2022/11/11 14:23:53;;;;;;;0.77;0.70;;;;;;;;;;5052896;28;20078;-40
2022/11/11 14:26:37;;;;;;;1.10;0.77;;;;;;;;;;5052913;28;20079;-40
2022/11/11 14:29:33;;;;;;;1.80;1.00;;;;;;;;;;5052626;28;20432;-41
2022/11/11 14:32:28;;;;;;;0.50;0.43;;;;;;;;;;5052795;28;20497;-41
2022/11/11 14:35:15;;;;;;;0.57;0.52;;;;;;;;;;5052677;28;20090;-41
2022/11/11 14:38:18;;;;;;;1.27;0.63;;;;;;;;;;5052745;28;20075;-40
2022/11/11 14:41:20;;;;;;;2.20;0.65;;;;;;;;;;5052481;28;20036;-40
2022/11/11 14:44:23;;;;;;;0.45;0.40;;;;;;;;;;5052193;28;20044;-40
2022/11/11 14:47:08;;;;;;;9.20;1.02;;;;;;;;;;5051888;28;20039;-41
2022/11/11 14:49:53;;;;;;;1.48;0.80;;;;;;;;;;5052301;28;20395;-40
2022/11/11 14:52:39;;;;;;;0.98;0.75;;;;;;;;;;5052381;28;20048;-41
2022/11/11 14:55:32;;;;;;;1.60;0.80;;;;;;;;;;5052051;28;20039;-40
2022/11/11 14:58:18;;;;;;;0.68;0.60;;;;;;;;;;5052317;28;20126;-40
2022/11/11 15:01:09;;;;;;;2.90;0.80;;;;;;;;;;5052021;28;20094;-40
2022/11/11 15:03:53;;;;;;;0.95;0.82;;;;;;;;;;5052241;28;20135;-40
2022/11/11 15:06:51;;;;;;;1.25;0.73;;;;;;;;;;5050895;28;20040;-40
2022/11/11 15:09:42;;;;;;;0.70;0.70;;;;;;;;;;5052165;28;20044;-40
2022/11/11 15:12:32;;;;;;;0.50;0.50;;;;;;;;;;5051794;28;20048;-40
2022/11/11 15:15:19;;;;;;;0.73;0.68;;;;;;;;;;5051676;28;20040;-41
2022/11/11 15:18:15;;;;;;;1.00;0.90;;;;;;;;;;5051785;28;20548;-40
2022/11/11 15:21:06;;;;;;;0.80;0.77;;;;;;;;;;5051688;28;20094;-40
2022/11/11 15:24:19;;;;;;;1.40;1.00;;;;;;;;;;5051709;28;20097;-40
2022/11/11 15:27:03;;;;;;;2.05;0.82;;;;;;;;;;5050066;28;20496;-40
2022/11/11 15:29:57;;;;;;;1.10;0.70;;;;;;;;;;5051763;28;20059;-40
2022/11/11 15:32:41;;;;;;;0.90;0.70;;;;;;;;;;5051539;28;20047;-40
2022/11/11 15:35:25;;;;;;;0.85;0.65;;;;;;;;;;5051635;28;20429;-40
2022/11/11 15:38:11;;;;;;;0.70;0.70;;;;;;;;;;5050743;28;20048;-40
2022/11/11 15:40:57;;;;;;;1.10;0.80;;;;;;;;;;5051482;28;20043;-40
2022/11/11 15:43:40;;;;;;;0.82;0.68;;;;;;;;;;5051359;28;20075;-40
2022/11/11 15:46:26;;;;;;;1.98;1.15;;;;;;;;;;5051594;28;20060;-40
2022/11/11 15:49:30;;;;;;;1.38;0.85;;;;;;;;;;5051025;28;20067;-41
2022/11/11 15:52:23;;;;;;;1.85;1.00;;;;;;;;;;5051337;28;20048;-41
2022/11/11 15:55:19;;;;;;;0.77;0.77;;;;;;;;;;5051497;28;20075;-40
2022/11/11 15:58:11;;;;;;;1.50;1.00;;;;;;;;;;5051235;28;20079;-40
2022/11/11 16:00:58;;;;;;;0.82;0.70;;;;;;;;;;5051616;28;20087;-41
2022/11/11 16:03:43;;;;;;;0.70;0.60;;;;;;;;;;5051469;28;20052;-41
2022/11/11 16:06:28;;;;;;;1.98;0.77;;;;;;;;;;5051442;28;20186;-41
2022/11/11 16:09:13;;;;;;;0.80;0.60;;;;;;;;;;5051099;28;20530;-40
2022/11/11 16:11:57;;;;;;;1.55;0.70;;;;;;;;;;5051427;28;20048;-41
2022/11/11 16:14:45;;;;;;;0.82;0.63;;;;;;;;;;5051377;28;20449;-41
2022/11/11 16:17:32;;;;;;;1.00;0.98;;;;;;;;;;5051271;28;20048;-41
2022/11/11 16:20:20;;;;;;;1.77;1.05;;;;;;;;;;5051313;28;20125;-40
2022/11/11 16:23:06;;;;;;;0.40;0.40;;;;;;;;;;5051304;28;20521;-40
2022/11/11 16:25:50;;;;;;;1.50;0.90;;;;;;;;;;5050965;28;20044;-40
2022/11/11 16:28:42;;;;;;;2.00;0.82;;;;;;;;;;5051061;28;20064;-40
2022/11/11 16:31:30;;;;;;;1.05;0.60;;;;;;;;;;5050981;28;20048;-40
2022/11/11 16:34:27;;;;;;;1.08;0.80;;;;;;;;;;5051872;28;20035;-40
2022/11/11 16:37:12;;;;;;;1.77;0.77;;;;;;;;;;5054960;28;20091;-40
2022/11/11 16:39:56;;;;;;;1.25;0.88;;;;;;;;;;5054608;28;20080;-40
2022/11/11 16:42:39;;;;;;;1.42;0.77;;;;;;;;;;5054680;28;20122;-41
2022/11/11 16:45:23;;;;;;;1.02;0.90;;;;;;;;;;5053512;28;20151;-40
2022/11/11 16:48:27;;;;;;;1.95;1.00;;;;;;;;;;5054156;28;20100;-41
2022/11/11 16:51:13;;;;;;;2.85;1.30;;;;;;;;;;5054405;28;20070;-40
2022/11/11 16:54:19;;;;;;;1.00;0.90;;;;;;;;;;5054289;28;20036;-40
2022/11/11 16:57:03;;;;;;;0.90;0.88;;;;;;;;;;5053595;28;20433;-41
2022/11/11 16:59:49;;;;;;;1.42;0.90;;;;;;;;;;5054386;28;20287;-40
2022/11/11 17:02:33;;;;;;;2.78;1.15;;;;;;;;;;5054580;28;20440;-40
2022/11/11 17:05:17;;;;;;;1.83;1.10;;;;;;;;;;5054089;28;20040;-40
2022/11/11 17:08:21;;;;;;;1.75;1.08;;;;;;;;;;5054234;28;20549;-40
2022/11/11 17:11:07;;;;;;;0.77;0.75;;;;;;;;;;5054426;28;20044;-41
2022/11/11 17:13:51;;;;;;;1.35;0.80;;;;;;;;;;5054309;28;20087;-40
2022/11/11 17:16:35;;;;;;;2.97;1.80;;;;;;;;;;5053979;28;20097;-40
2022/11/11 17:19:20;;;;;;;1.95;1.55;;;;;;;;;;5054249;28;20067;-40
2022/11/11 17:22:09;;;;;;;2.25;1.17;;;;;;;;;;5054220;28;20394;-41
2022/11/11 17:24:53;;;;;;;2.47;1.42;;;;;;;;;;5053873;28;20064;-40
2022/11/11 17:27:37;;;;;;;2.25;0.77;;;;;;;;;;5053754;28;20052;-40
2022/11/11 17:30:21;;;;;;;1.08;0.75;;;;;;;;;;5052658;28;20087;-41
2022/11/11 17:33:05;;;;;;;2.45;0.95;;;;;;;;;;5054025;28;20106;-40
2022/11/11 17:35:50;;;;;;;1.50;0.90;;;;;;;;;;5053600;28;20047;-40
2022/11/11 17:38:35;;;;;;;1.98;1.10;;;;;;;;;;5053907;28;20039;-40
2022/11/11 17:41:19;;;;;;;1.10;0.73;;;;;;;;;;5053815;28;20528;-40
2022/11/11 17:44:02;;;;;;;1.20;0.80;;;;;;;;;;5053407;28;20080;-40
2022/11/11 17:46:46;;;;;;;1.40;0.80;;;;;;;;;;5053409;28;20422;-40
2022/11/11 17:49:31;;;;;;;2.63;1.35;;;;;;;;;;5053434;28;20063;-40
2022/11/11 17:52:15;;;;;;;1.95;1.05;;;;;;;;;;5053463;28;20498;-40
2022/11/11 17:55:00;;;;;;;1.00;0.85;;;;;;;;;;5053523;28;20044;-40
2022/11/11 17:57:43;;;;;;;4.40;1.23;;;;;;;;;;5053228;28;20060;-41
2022/11/11 18:00:28;;;;;;;1.45;0.70;;;;;;;;;;5053227;28;20078;-40
2022/11/11 18:03:12;;;;;;;1.95;1.75;;;;;;;;;;5053373;28;20055;-40